createdAt,value
2023-05-21T00:02:19.676Z,373.35
2023-05-21T00:04:46.290Z,374.58
2023-05-21T00:07:13.382Z,465.95
2023-05-21T00:09:39.782Z,416.13
2023-05-21T00:12:08.197Z,375.23
2023-05-21T00:14:35.536Z,359.90
2023-05-21T00:17:02.020Z,338.38
2023-05-21T00:19:28.505Z,345.77
2023-05-21T00:21:55.900Z,334.50
2023-05-21T00:24:22.291Z,251.35
2023-05-21T00:26:48.677Z,163.95
2023-05-21T00:29:15.092Z,198.93
2023-05-21T00:31:41.535Z,230.60
2023-05-21T00:34:07.987Z,264.83
2023-05-21T00:36:34.759Z,221.00
2023-05-21T00:39:02.352Z,230.93
2023-05-21T00:41:30.123Z,249.23
2023-05-21T00:44:00.230Z,204.35
2023-05-21T00:46:28.499Z,243.60
2023-05-21T00:48:55.479Z,201.48
2023-05-21T00:51:22.125Z,182.50
2023-05-21T00:53:52.522Z,155.45
2023-05-21T00:56:22.575Z,164.70
2023-05-21T00:58:51.708Z,184.13
2023-05-21T01:01:18.468Z,205.27
2023-05-21T01:03:44.990Z,177.40
2023-05-21T01:06:13.917Z,173.57
2023-05-21T01:08:41.610Z,173.93
2023-05-21T01:11:09.420Z,176.98
2023-05-21T01:13:39.870Z,177.05
2023-05-21T01:16:06.720Z,145.35
2023-05-21T01:18:43.470Z,177.02
2023-05-21T01:21:10.232Z,183.55
2023-05-21T01:23:36.765Z,178.90
2023-05-21T01:26:03.154Z,147.15
2023-05-21T01:28:29.872Z,163.65
2023-05-21T01:31:02.881Z,126.85
2023-05-21T01:33:49.902Z,124.78
2023-05-21T01:36:26.836Z,119.22
2023-05-21T01:39:23.837Z,99.38
2023-05-21T01:41:53.362Z,97.05
2023-05-21T01:44:20.913Z,127.20
2023-05-21T01:46:47.359Z,133.60
2023-05-21T01:49:15.758Z,145.73
2023-05-21T01:51:42.800Z,128.52
2023-05-21T01:54:09.191Z,137.68
2023-05-21T01:56:36.976Z,114.95
2023-05-21T01:59:03.451Z,132.52
2023-05-21T02:01:30.590Z,144.68
2023-05-21T02:03:58.058Z,124.00
2023-05-21T02:06:24.611Z,117.55
2023-05-21T02:08:51.053Z,126.40
2023-05-21T02:11:17.609Z,144.70
2023-05-21T02:13:46.049Z,108.60
2023-05-21T02:16:14.578Z,157.80
2023-05-21T02:18:43.599Z,91.43
2023-05-21T02:21:13.489Z,118.80
2023-05-21T02:23:39.949Z,125.30
2023-05-21T02:26:06.366Z,107.32
2023-05-21T02:28:33.746Z,114.38
2023-05-21T02:31:00.562Z,118.13
2023-05-21T02:33:26.975Z,146.50
2023-05-21T02:35:53.524Z,155.50
2023-05-21T02:38:23.053Z,163.60
2023-05-21T02:40:53.290Z,148.80
2023-05-21T02:43:19.875Z,158.02
2023-05-21T02:45:46.336Z,164.00
2023-05-21T02:48:12.830Z,194.30
2023-05-21T02:50:39.348Z,167.00
2023-05-21T02:53:06.314Z,183.20
2023-05-21T02:55:32.717Z,192.65
2023-05-21T02:57:59.086Z,164.82
2023-05-21T03:00:25.451Z,181.98
2023-05-21T03:02:51.868Z,198.38
2023-05-21T03:05:18.386Z,120.45
2023-05-21T03:07:44.780Z,148.27
2023-05-21T03:10:11.203Z,145.35
2023-05-21T03:12:37.975Z,158.65
2023-05-21T03:15:04.873Z,134.63
2023-05-21T03:17:32.269Z,139.38
2023-05-21T03:19:58.748Z,154.45
2023-05-21T03:22:25.217Z,144.68
2023-05-21T03:24:51.605Z,121.38
2023-05-21T03:27:18.017Z,116.90
2023-05-21T03:29:44.610Z,117.28
2023-05-21T03:32:11.135Z,118.38
2023-05-21T03:34:37.627Z,118.75
2023-05-21T03:37:04.106Z,145.23
2023-05-21T03:39:30.503Z,125.60
2023-05-21T03:41:56.904Z,143.05
2023-05-21T03:44:23.303Z,135.07
2023-05-21T03:46:49.697Z,143.45
2023-05-21T03:49:16.172Z,140.15
2023-05-21T03:51:42.655Z,141.15
2023-05-21T03:54:09.096Z,133.98
2023-05-21T03:56:35.626Z,146.27
2023-05-21T03:59:02.191Z,135.20
2023-05-21T04:01:32.889Z,133.75
2023-05-21T04:03:59.446Z,124.43
2023-05-21T04:06:25.950Z,158.18
2023-05-21T04:08:52.390Z,137.02
2023-05-21T04:11:18.862Z,147.48
2023-05-21T04:13:46.095Z,158.98
2023-05-21T04:16:14.733Z,153.48
2023-05-21T04:18:45.661Z,157.40
2023-05-21T04:21:12.386Z,142.15
2023-05-21T04:23:38.799Z,173.02
2023-05-21T04:26:05.235Z,187.10
2023-05-21T04:28:31.684Z,142.45
2023-05-21T04:30:58.775Z,178.65
2023-05-21T04:33:25.649Z,136.32
2023-05-21T04:35:52.125Z,142.25
2023-05-21T04:38:19.767Z,160.43
2023-05-21T04:40:53.142Z,163.27
2023-05-21T04:43:25.745Z,140.80
2023-05-21T04:45:54.694Z,113.45
2023-05-21T04:48:24.570Z,122.80
2023-05-21T04:50:51.953Z,141.05
2023-05-21T04:53:18.342Z,152.98
2023-05-21T04:55:44.788Z,111.72
2023-05-21T04:58:11.196Z,158.70
2023-05-21T05:00:38.335Z,160.45
2023-05-21T05:03:05.160Z,152.50
2023-05-21T05:05:31.637Z,132.27
2023-05-21T05:07:58.206Z,137.65
2023-05-21T05:10:24.593Z,177.00
2023-05-21T05:12:50.951Z,169.90
2023-05-21T05:15:17.346Z,148.45
2023-05-21T05:17:44.745Z,130.18
2023-05-21T05:20:11.592Z,170.07
2023-05-21T05:22:38.077Z,179.38
2023-05-21T05:25:04.976Z,162.23
2023-05-21T05:27:31.436Z,146.85
2023-05-21T05:29:57.869Z,170.82
2023-05-21T05:32:24.292Z,178.25
2023-05-21T05:34:50.785Z,171.27
2023-05-21T05:37:17.244Z,160.27
2023-05-21T05:39:43.674Z,140.50
2023-05-21T05:42:10.062Z,174.55
2023-05-21T05:44:36.588Z,178.65
2023-05-21T05:47:03.085Z,157.75
2023-05-21T05:49:29.514Z,150.32
2023-05-21T05:51:56.638Z,133.93
2023-05-21T05:54:23.079Z,155.95
2023-05-21T05:56:49.452Z,111.45
2023-05-21T05:59:16.472Z,151.40
2023-05-21T06:01:42.937Z,169.68
2023-05-21T06:04:09.422Z,138.65
2023-05-21T06:06:36.708Z,131.43
2023-05-21T06:09:03.169Z,146.90
2023-05-21T06:11:29.654Z,82.55
2023-05-21T06:13:56.702Z,156.30
2023-05-21T06:16:23.258Z,133.48
2023-05-21T06:18:49.767Z,137.20
2023-05-21T06:21:16.390Z,108.25
2023-05-21T06:23:42.817Z,136.60
2023-05-21T06:26:09.291Z,89.32
2023-05-21T06:28:36.209Z,102.32
2023-05-21T06:31:02.713Z,98.68
2023-05-21T06:33:29.234Z,154.15
2023-05-21T06:35:56.010Z,124.88
2023-05-21T06:38:22.469Z,156.10
2023-05-21T06:40:49.464Z,104.65
2023-05-21T06:43:15.994Z,132.43
2023-05-21T06:45:42.498Z,113.13
2023-05-21T06:48:09.144Z,79.40
2023-05-21T06:50:35.650Z,157.93
2023-05-21T06:53:02.099Z,106.88
2023-05-21T06:55:28.588Z,95.00
2023-05-21T06:57:57.454Z,102.75
2023-05-21T07:00:23.933Z,108.55
2023-05-21T07:02:50.690Z,106.13
2023-05-21T07:05:17.258Z,111.97
2023-05-21T07:07:43.736Z,161.95
2023-05-21T07:10:10.639Z,91.10
2023-05-21T07:12:37.078Z,90.28
2023-05-21T07:15:03.709Z,101.70
2023-05-21T07:17:30.221Z,65.05
2023-05-21T07:19:56.679Z,92.05
2023-05-21T07:22:23.039Z,77.18
2023-05-21T07:24:49.451Z,85.80
2023-05-21T07:27:25.252Z,110.55
2023-05-21T07:29:52.486Z,133.70
2023-05-21T07:32:18.889Z,70.75
2023-05-21T07:34:45.982Z,82.57
2023-05-21T07:37:13.766Z,79.82
2023-05-21T07:39:40.503Z,85.43
2023-05-21T07:42:11.222Z,74.78
2023-05-21T07:44:37.754Z,77.88
2023-05-21T07:47:05.149Z,66.95
2023-05-21T07:49:31.621Z,101.75
2023-05-21T07:51:58.035Z,76.53
2023-05-21T07:54:24.458Z,76.18
2023-05-21T07:56:50.963Z,80.95
2023-05-21T07:59:17.388Z,70.72
2023-05-21T08:01:44.160Z,77.03
2023-05-21T08:04:11.152Z,133.85
2023-05-21T08:06:37.779Z,102.25
2023-05-21T08:09:06.153Z,113.90
2023-05-21T08:11:33.132Z,106.70
2023-05-21T08:14:00.057Z,103.65
2023-05-21T08:16:26.905Z,84.40
2023-05-21T08:18:53.604Z,74.65
2023-05-21T08:21:20.137Z,114.50
2023-05-21T08:23:46.576Z,83.88
2023-05-21T08:26:13.041Z,111.85
2023-05-21T08:28:39.539Z,107.35
2023-05-21T08:31:06.052Z,104.00
2023-05-21T08:33:37.072Z,72.45
2023-05-21T08:36:07.258Z,70.63
2023-05-21T08:38:35.141Z,101.95
2023-05-21T08:41:01.559Z,98.57
2023-05-21T08:43:29.137Z,129.32
2023-05-21T08:45:59.075Z,91.43
2023-05-21T08:48:25.739Z,81.03
2023-05-21T08:50:53.480Z,177.00
2023-05-21T08:53:28.072Z,196.60
2023-05-21T08:55:57.240Z,70.88
2023-05-21T08:58:24.348Z,72.25
2023-05-21T09:00:50.998Z,82.70
2023-05-21T09:03:17.929Z,93.80
2023-05-21T09:05:45.740Z,110.47
2023-05-21T09:08:19.408Z,94.38
2023-05-21T09:10:50.629Z,70.22
2023-05-21T09:13:18.286Z,71.95
2023-05-21T09:15:45.759Z,76.05
2023-05-21T09:18:12.727Z,126.45
2023-05-21T09:20:39.900Z,97.15
2023-05-21T09:23:12.389Z,117.85
2023-05-21T09:25:39.624Z,93.45
2023-05-21T09:28:12.952Z,63.70
2023-05-21T09:30:53.525Z,82.30
2023-05-21T09:33:29.530Z,87.65
2023-05-21T09:35:56.479Z,116.15
2023-05-21T09:38:23.974Z,43.63
2023-05-21T09:40:50.504Z,75.88
2023-05-21T09:43:17.242Z,37.22
2023-05-21T09:45:59.725Z,82.90
2023-05-21T09:51:18.529Z,32.78
2023-05-21T09:53:50.127Z,32.75
2023-05-21T09:56:19.197Z,47.58
2023-05-21T09:58:46.267Z,89.57
2023-05-21T10:01:13.357Z,146.63
2023-05-21T10:03:42.614Z,252.43
2023-05-21T10:06:10.074Z,61.88
2023-05-21T10:08:41.011Z,35.78
2023-05-21T10:11:08.922Z,134.10
2023-05-21T10:13:41.593Z,63.78
2023-05-21T10:16:08.454Z,72.38
2023-05-21T10:18:37.656Z,38.38
2023-05-21T10:21:07.091Z,43.95
2023-05-21T10:23:36.182Z,44.33
2023-05-21T10:26:04.060Z,39.33
2023-05-21T10:28:37.596Z,46.15
2023-05-21T10:31:04.380Z,42.30
2023-05-21T10:33:32.032Z,41.42
2023-05-21T10:35:59.365Z,183.30
2023-05-21T10:38:27.599Z,137.25
2023-05-21T10:40:55.793Z,40.00
2023-05-21T10:43:59.529Z,41.70
2023-05-21T10:47:08.673Z,31.55
2023-05-21T10:49:49.486Z,25.38
2023-05-21T10:52:34.850Z,34.28
2023-05-21T10:55:26.954Z,33.67
2023-05-21T10:58:12.278Z,34.20
2023-05-21T11:00:39.326Z,30.52
2023-05-21T11:03:07.685Z,24.55
2023-05-21T11:05:55.254Z,28.45
2023-05-21T11:08:35.647Z,30.98
2023-05-21T11:11:03.487Z,28.70
2023-05-21T11:13:49.152Z,75.70
2023-05-21T11:16:17.117Z,44.30
2023-05-21T11:18:46.533Z,29.90
2023-05-21T11:21:18.194Z,29.92
2023-05-21T11:23:50.684Z,39.97
2023-05-21T11:26:18.612Z,29.73
2023-05-21T11:28:45.164Z,25.00
2023-05-21T11:31:28.045Z,28.02
2023-05-21T11:34:21.750Z,29.95
2023-05-21T11:36:49.720Z,30.48
2023-05-21T11:39:25.409Z,34.28
2023-05-21T11:41:53.276Z,34.05
2023-05-21T11:44:37.464Z,56.60
2023-05-21T11:47:04.715Z,42.03
2023-05-21T11:49:31.827Z,28.35
2023-05-21T11:52:00.500Z,42.00
2023-05-21T11:54:27.961Z,74.15
2023-05-21T11:56:54.959Z,40.47
2023-05-21T11:59:21.430Z,45.47
2023-05-21T12:01:47.797Z,35.97
2023-05-21T12:04:14.232Z,31.20
2023-05-21T12:06:44.046Z,30.73
2023-05-21T12:09:11.130Z,28.55
2023-05-21T12:11:41.386Z,38.22
2023-05-21T12:14:11.218Z,27.23
2023-05-21T12:16:39.342Z,24.10
2023-05-21T12:19:06.731Z,30.67
2023-05-21T12:21:34.091Z,29.98
2023-05-21T12:24:00.555Z,23.90
2023-05-21T12:26:27.652Z,24.23
2023-05-21T12:28:55.100Z,22.38
2023-05-21T12:31:22.956Z,24.45
2023-05-21T12:33:50.942Z,22.75
2023-05-21T12:36:28.236Z,24.00
2023-05-21T12:38:54.652Z,22.08
2023-05-21T12:41:22.047Z,28.48
2023-05-21T12:43:49.093Z,31.80
2023-05-21T12:46:17.608Z,36.05
2023-05-21T12:48:55.446Z,27.70
2023-05-21T12:51:22.378Z,27.90
2023-05-21T12:53:48.897Z,34.05
2023-05-21T12:56:15.932Z,27.27
2023-05-21T12:58:43.005Z,24.02
2023-05-21T13:01:11.253Z,28.83
2023-05-21T13:03:38.941Z,28.23
2023-05-21T13:06:09.266Z,27.13
2023-05-21T13:08:35.767Z,25.08
2023-05-21T13:11:03.464Z,25.80
2023-05-21T13:13:30.565Z,28.55
2023-05-21T13:15:57.107Z,32.38
2023-05-21T13:18:23.663Z,51.75
2023-05-21T13:20:51.606Z,33.95
2023-05-21T13:23:18.031Z,29.58
2023-05-21T13:25:44.601Z,30.17
2023-05-21T13:28:14.941Z,36.13
2023-05-21T13:30:41.410Z,32.83
2023-05-21T13:33:08.031Z,34.67
2023-05-21T13:35:34.716Z,33.70
2023-05-21T13:38:01.159Z,28.63
2023-05-21T13:40:27.764Z,29.13
2023-05-21T13:42:54.197Z,32.28
2023-05-21T13:45:21.040Z,35.25
2023-05-21T13:47:48.197Z,33.38
2023-05-21T13:50:16.132Z,30.67
2023-05-21T13:52:42.607Z,33.60
2023-05-21T13:55:09.920Z,32.70
2023-05-21T13:57:36.446Z,34.55
2023-05-21T14:00:03.914Z,32.92
2023-05-21T14:02:30.506Z,27.52
2023-05-21T14:04:57.135Z,28.75
2023-05-21T14:07:23.606Z,28.65
2023-05-21T14:09:50.111Z,32.17
2023-05-21T14:12:17.018Z,29.83
2023-05-21T14:14:43.629Z,29.38
2023-05-21T14:17:10.084Z,27.80
2023-05-21T14:19:36.582Z,28.15
2023-05-21T14:22:02.968Z,27.23
2023-05-21T14:24:29.403Z,21.70
2023-05-21T14:26:55.800Z,22.52
2023-05-21T14:29:22.209Z,25.45
2023-05-21T14:31:48.705Z,23.10
2023-05-21T14:34:15.293Z,23.55
2023-05-21T14:36:41.823Z,24.05
2023-05-21T14:39:08.252Z,22.40
2023-05-21T14:41:39.102Z,21.98
2023-05-21T14:44:05.680Z,22.45
2023-05-21T14:46:32.525Z,20.40
2023-05-21T14:49:00.149Z,23.17
2023-05-21T14:51:26.648Z,20.80
2023-05-21T14:53:53.064Z,20.27
2023-05-21T14:56:21.889Z,22.25
2023-05-21T14:58:48.540Z,20.13
2023-05-21T15:01:15.065Z,18.50
2023-05-21T15:03:41.624Z,30.52
2023-05-21T15:06:08.340Z,17.60
2023-05-21T15:08:34.808Z,23.40
2023-05-21T15:11:01.200Z,17.80
2023-05-21T15:13:27.961Z,17.40
2023-05-21T15:15:54.481Z,17.45
2023-05-21T15:18:20.980Z,17.25
2023-05-21T15:20:47.632Z,18.40
2023-05-21T15:23:17.182Z,18.48
2023-05-21T15:25:44.857Z,17.25
2023-05-21T15:28:12.015Z,19.23
2023-05-21T15:30:38.554Z,21.17
2023-05-21T15:33:05.382Z,21.98
2023-05-21T15:35:32.007Z,20.00
2023-05-21T15:37:58.471Z,19.05
2023-05-21T15:40:26.933Z,21.17
2023-05-21T15:42:53.806Z,22.40
2023-05-21T15:45:20.396Z,27.75
2023-05-21T15:47:46.867Z,32.25
2023-05-21T15:50:13.304Z,30.60
2023-05-21T15:52:41.304Z,26.30
2023-05-21T15:55:08.175Z,28.85
2023-05-21T15:57:34.607Z,27.67
2023-05-21T16:00:01.066Z,21.80
2023-05-21T16:02:27.551Z,29.65
2023-05-21T16:04:54.013Z,30.00
2023-05-21T16:07:21.341Z,22.73
2023-05-21T16:09:47.855Z,31.73
2023-05-21T16:12:14.317Z,31.13
2023-05-21T16:14:41.329Z,23.50
2023-05-21T16:17:08.121Z,21.88
2023-05-21T16:19:34.750Z,21.20
2023-05-21T16:22:01.981Z,19.75
2023-05-21T16:24:28.351Z,20.73
2023-05-21T16:26:55.383Z,20.73
2023-05-21T16:29:22.317Z,20.98
2023-05-21T16:31:49.111Z,20.90
2023-05-21T16:34:16.035Z,28.60
2023-05-21T16:36:42.822Z,32.72
2023-05-21T16:39:09.351Z,30.48
2023-05-21T16:41:35.816Z,36.90
2023-05-21T16:44:02.290Z,33.40
2023-05-21T16:46:28.691Z,30.38
2023-05-21T16:48:55.070Z,33.88
2023-05-21T16:51:21.427Z,60.50
2023-05-21T16:53:48.183Z,47.03
2023-05-21T16:56:14.816Z,35.88
2023-05-21T16:58:41.257Z,30.90
2023-05-21T17:01:07.703Z,33.00
2023-05-21T17:03:34.359Z,211.60
2023-05-21T17:06:00.830Z,88.05
2023-05-21T17:08:27.235Z,38.35
2023-05-21T17:10:53.673Z,145.95
2023-05-21T17:13:22.742Z,35.00
2023-05-21T17:15:51.155Z,91.30
2023-05-21T17:18:17.739Z,66.88
2023-05-21T17:20:44.283Z,95.65
2023-05-21T17:23:11.839Z,86.53
2023-05-21T17:25:38.647Z,70.43
2023-05-21T17:28:05.434Z,47.22
2023-05-21T17:30:31.870Z,116.50
2023-05-21T17:32:58.375Z,107.47
2023-05-21T17:35:24.918Z,397.33
2023-05-21T17:37:53.199Z,57.75
2023-05-21T17:40:21.318Z,40.47
2023-05-21T17:42:47.948Z,93.35
2023-05-21T17:45:14.422Z,174.25
2023-05-21T17:47:40.957Z,90.25
2023-05-21T17:50:08.124Z,125.07
2023-05-21T17:52:34.548Z,86.55
2023-05-21T17:55:01.677Z,142.27
2023-05-21T17:57:28.245Z,143.85
2023-05-21T17:59:55.458Z,285.20
2023-05-21T18:02:23.446Z,155.63
2023-05-21T18:04:50.085Z,47.30
2023-05-21T18:07:16.672Z,151.80
2023-05-21T18:09:43.322Z,76.60
2023-05-21T18:12:09.731Z,118.35
2023-05-21T18:14:36.186Z,351.40
2023-05-21T18:17:02.831Z,182.07
2023-05-21T18:19:30.388Z,371.92
2023-05-21T18:21:57.179Z,383.23
2023-05-21T18:24:23.653Z,188.55
2023-05-21T18:26:50.124Z,216.35
2023-05-21T18:29:16.530Z,495.73
2023-05-21T18:31:44.634Z,279.90
2023-05-21T18:34:11.163Z,297.67
2023-05-21T18:36:40.672Z,398.60
2023-05-21T18:39:09.939Z,496.75
2023-05-21T18:41:37.364Z,397.60
2023-05-21T18:44:05.803Z,474.35
2023-05-21T18:46:32.296Z,351.25
2023-05-21T18:49:00.548Z,418.05
2023-05-21T18:51:27.052Z,192.38
2023-05-21T18:53:53.617Z,505.35
2023-05-21T18:56:20.061Z,620.65
2023-05-21T18:58:47.657Z,488.92
2023-05-21T19:01:14.175Z,584.53
2023-05-21T19:03:40.789Z,590.72
2023-05-21T19:06:08.445Z,584.53
2023-05-21T19:08:35.046Z,630.65
2023-05-21T19:11:01.602Z,654.85
2023-05-21T19:13:28.130Z,611.38
2023-05-21T19:15:54.688Z,679.05
2023-05-21T19:18:21.066Z,726.08
2023-05-21T19:20:47.493Z,755.35
2023-05-21T19:23:14.256Z,777.40
2023-05-21T19:25:41.476Z,779.00
2023-05-21T19:28:07.856Z,744.20
2023-05-21T19:30:36.381Z,776.17
2023-05-21T19:33:03.276Z,801.10
2023-05-21T19:35:30.132Z,709.63
2023-05-21T19:38:00.160Z,775.35
2023-05-21T19:40:28.179Z,812.72
2023-05-21T19:42:54.591Z,832.78
2023-05-21T19:45:21.529Z,802.78
2023-05-21T19:47:48.544Z,872.95
2023-05-21T19:50:15.027Z,815.85
2023-05-21T19:52:41.446Z,819.90
2023-05-21T19:55:10.190Z,777.15
2023-05-21T19:57:37.150Z,782.38
2023-05-21T20:00:05.320Z,884.42
2023-05-21T20:02:31.997Z,818.40
2023-05-21T20:04:59.090Z,837.60
2023-05-21T20:07:25.814Z,874.97
2023-05-21T20:09:52.378Z,894.35
2023-05-21T20:12:19.005Z,948.17
2023-05-21T20:14:47.321Z,918.95
2023-05-21T20:17:14.402Z,909.13
2023-05-21T20:19:41.030Z,861.17
2023-05-21T20:22:07.474Z,967.47
2023-05-21T20:24:33.849Z,941.47
2023-05-21T20:27:01.521Z,957.58
2023-05-21T20:29:28.683Z,931.58
2023-05-21T20:31:55.271Z,946.03
2023-05-21T20:34:21.792Z,910.33
2023-05-21T20:36:48.372Z,977.70
2023-05-21T20:39:15.561Z,950.72
2023-05-21T20:41:44.486Z,893.03
2023-05-21T20:44:11.100Z,921.00
2023-05-21T20:46:38.259Z,938.90
2023-05-21T20:49:05.177Z,898.65
2023-05-21T20:51:31.710Z,945.92
2023-05-21T20:53:58.270Z,945.35
2023-05-21T20:56:37.464Z,998.15
2023-05-21T20:59:09.966Z,992.25
2023-05-21T21:01:37.750Z,962.10
2023-05-21T21:04:04.795Z,962.25
2023-05-21T21:06:31.684Z,991.22
2023-05-21T21:08:58.171Z,1002.35
2023-05-21T21:11:24.640Z,964.50
2023-05-21T21:13:51.756Z,996.75
2023-05-21T21:16:18.172Z,938.65
2023-05-21T21:18:45.999Z,950.78
2023-05-21T21:21:12.544Z,999.22
2023-05-21T21:23:39.019Z,900.55
2023-05-21T21:26:05.578Z,929.05
2023-05-21T21:28:31.967Z,861.17
2023-05-21T21:30:58.394Z,931.97
2023-05-21T21:33:26.440Z,969.65
2023-05-21T21:35:52.931Z,912.70
2023-05-21T21:38:19.292Z,974.33
2023-05-21T21:40:45.750Z,967.20
2023-05-21T21:43:12.140Z,954.70
2023-05-21T21:45:38.620Z,977.97
2023-05-21T21:48:05.225Z,971.90
2023-05-21T21:50:31.712Z,983.67
2023-05-21T21:52:58.088Z,1002.55
2023-05-21T21:55:24.566Z,998.10
2023-05-21T21:57:51.244Z,1024.85
2023-05-21T22:00:17.868Z,1009.40
2023-05-21T22:02:46.553Z,1018.05
2023-05-21T22:05:14.900Z,1002.50
2023-05-21T22:07:42.630Z,972.13
2023-05-21T22:10:09.418Z,1004.88
2023-05-21T22:12:35.908Z,1004.85
2023-05-21T22:15:05.104Z,1052.57
2023-05-21T22:17:32.712Z,1000.92
2023-05-21T22:19:59.452Z,991.33
2023-05-21T22:22:26.225Z,973.35
2023-05-21T22:24:53.385Z,962.88
2023-05-21T22:27:20.268Z,965.72
2023-05-21T22:29:47.023Z,959.05
2023-05-21T22:32:13.709Z,943.15
2023-05-21T22:34:40.102Z,935.42
2023-05-21T22:37:06.473Z,943.78
2023-05-21T22:39:32.852Z,895.08
2023-05-21T22:41:59.578Z,906.97
2023-05-21T22:44:25.999Z,898.10
2023-05-21T22:46:52.455Z,926.30
2023-05-21T22:49:19.742Z,900.13
2023-05-21T22:51:46.301Z,843.75
2023-05-21T22:54:12.708Z,805.13
2023-05-21T22:56:39.106Z,827.72
2023-05-21T22:59:05.570Z,822.30
2023-05-21T23:01:32.014Z,790.83
2023-05-21T23:03:58.427Z,779.25
2023-05-21T23:06:24.801Z,787.80
2023-05-21T23:08:51.221Z,801.10
2023-05-21T23:11:17.639Z,782.70
2023-05-21T23:13:44.000Z,752.15
2023-05-21T23:16:10.431Z,762.28
2023-05-21T23:18:36.908Z,739.75
2023-05-21T23:21:03.424Z,748.80
2023-05-21T23:23:30.417Z,738.72
2023-05-21T23:25:58.743Z,740.35
2023-05-21T23:28:25.810Z,742.28
2023-05-21T23:30:52.602Z,732.97
2023-05-21T23:33:19.002Z,748.58
2023-05-21T23:35:45.441Z,738.70
2023-05-21T23:38:11.826Z,735.05
2023-05-21T23:40:38.511Z,737.10
2023-05-21T23:43:05.192Z,725.90
2023-05-21T23:45:31.697Z,710.40
2023-05-21T23:47:58.173Z,705.55
2023-05-21T23:50:24.894Z,695.65
2023-05-21T23:52:51.342Z,711.60
2023-05-21T23:55:17.801Z,688.75
2023-05-21T23:57:44.219Z,684.45
